Peoria, IL (61601)

6:05 PM CST on February 07, 2016 (GMT -0600)
DracoPhyre PWS | | Change Station
CLOSE
Current Station
Personal Weather Station
Location: Peoria, IL
Elevation: 640 ft
Nearby Weather Stations

Elev 640 ft 40.72 °N, 89.59 °W | Updated 8 seconds ago

Clear
Clear
41.5 °F
Feels Like 42 °F
N
0.0
Wind Variable Wind from East
Gusts 3.1 mph

Today
High -- | Low -- °F
--% Chance of Precip.
Yesterday
High -- | Low -- °F
Precip. -- in
Pressure 29.85 in
Visibility 10.0 miles
Clouds Clear
Windchill 42 °F
Dew Point 35 °F
Humidity 77%
Rainfall 0.00 in
Snow Depth Not available.
7:02 AM 5:22 PM
Waning Crescent, 1% visible
METAR KPIA 072354Z 29006KT 10SM CLR 06/M03 A2983 RMK AO2 SLP107 T00561033 10094 20056 51007 $
Pressure 29.85 in
Visibility 10.0 miles
Clouds Clear
Windchill 42 °F
Dew Point 35 °F
Humidity 77%
Rainfall 0.00 in
Snow Depth Not available.
7:02 AM 5:22 PM
Waning Crescent, 1% visible
METAR KPIA 072354Z 29006KT 10SM CLR 06/M03 A2983 RMK AO2 SLP107 T00561033 10094 20056 51007 $

10-Day Weather Forecast

Almanac

Astronomy

Feb. 07, 2016 Rise Set
Actual Time
Civil Twilight
Nautical Twilight
Astronomical Twilight
Moon
Length of Visible Light
Length of Day
Tomorrow will be .
, % of the Moon is Illuminated

Today's Extremes

State Highs State Lows

Community

WunderPhotos

Upload Photos

1,891,334 photos uploaded!

WunderBlog® & News

Nearby

Air Quality

  Air Quality AQ Index Pollutant
Not available.

Snow Depth

Station Depth Elevation

Earthquake Activity

City Distance Mag. Time & Date
Minimum magnitude displayed is 2.5.

Coastal Water Temperatures

Place Temperature

Stations

Nearby Weather Stations

Station Location Temp. Windchill Dew Point Humidity Wind Precip. Elev Updated Type
                   

Watches & Warnings

There are currently no watches in effect.